sensor_id;sensor_type;location;lat;lon;timestamp;pressure;altitude;pressure_sealevel;temperature;humidity
78014;BME280;67222;50.182;8.734;2023-02-19T06:30:59;100877.50;;;9.42;76.65
78014;BME280;67222;50.182;8.734;2023-02-19T06:33:25;100863.53;;;9.40;76.20
78014;BME280;67222;50.182;8.734;2023-02-19T06:35:50;100872.47;;;9.32;76.49
78014;BME280;67222;50.182;8.734;2023-02-19T06:38:16;100875.31;;;9.31;76.15
78014;BME280;67222;50.182;8.734;2023-02-19T06:40:41;100871.97;;;9.29;76.58
78014;BME280;67222;50.182;8.734;2023-02-19T06:43:06;100876.13;;;9.31;76.37
78014;BME280;67222;50.182;8.734;2023-02-19T06:45:32;100892.44;;;9.28;77.22
78014;BME280;67222;50.182;8.734;2023-02-19T06:47:58;100904.41;;;9.32;77.04
78014;BME280;67222;50.182;8.734;2023-02-19T06:52:58;100906.03;;;9.19;79.07
78014;BME280;67222;50.182;8.734;2023-02-19T06:55:23;100903.91;;;8.99;81.07
78014;BME280;67222;50.182;8.734;2023-02-19T06:57:49;100916.38;;;8.99;81.63
78014;BME280;67222;50.182;8.734;2023-02-19T07:00:14;100913.06;;;8.82;81.31
78014;BME280;67222;50.182;8.734;2023-02-19T07:02:40;100924.97;;;8.86;80.84
78014;BME280;67222;50.182;8.734;2023-02-19T07:05:05;100929.19;;;8.80;81.35
78014;BME280;67222;50.182;8.734;2023-02-19T07:07:30;100931.25;;;8.70;82.16
78014;BME280;67222;50.182;8.734;2023-02-19T07:09:56;100942.44;;;8.66;81.99
78014;BME280;67222;50.182;8.734;2023-02-19T07:12:21;100942.38;;;8.74;82.29
78014;BME280;67222;50.182;8.734;2023-02-19T07:14:46;100943.97;;;8.83;80.98
78014;BME280;67222;50.182;8.734;2023-02-19T07:17:12;100936.25;;;8.88;81.48
78014;BME280;67222;50.182;8.734;2023-02-19T07:19:37;100938.63;;;8.83;81.40
78014;BME280;67222;50.182;8.734;2023-02-19T07:22:02;100940.38;;;8.91;80.87
78014;BME280;67222;50.182;8.734;2023-02-19T07:24:28;100942.47;;;8.80;80.93
78014;BME280;67222;50.182;8.734;2023-02-19T07:26:53;100938.03;;;8.73;81.14
78014;BME280;67222;50.182;8.734;2023-02-19T07:29:18;100941.38;;;8.75;80.44
78014;BME280;67222;50.182;8.734;2023-02-19T07:36:54;100955.88;;;8.87;80.73
78014;BME280;67222;50.182;8.734;2023-02-19T07:39:19;100960.47;;;8.78;81.74
78014;BME280;67222;50.182;8.734;2023-02-19T07:41:44;100960.63;;;8.77;81.52
78014;BME280;67222;50.182;8.734;2023-02-19T07:44:10;100964.72;;;8.65;81.32
78014;BME280;67222;50.182;8.734;2023-02-19T07:46:37;100969.38;;;8.63;81.94
78014;BME280;67222;50.182;8.734;2023-02-19T07:49:03;100982.50;;;8.64;82.67
78014;BME280;67222;50.182;8.734;2023-02-19T07:54:04;100971.56;;;8.59;81.36
78014;BME280;67222;50.182;8.734;2023-02-19T07:56:29;100977.06;;;8.58;82.94
78014;BME280;67222;50.182;8.734;2023-02-19T07:58:54;100982.97;;;8.68;81.15
78014;BME280;67222;50.182;8.734;2023-02-19T08:01:22;100972.16;;;8.69;81.57
78014;BME280;67222;50.182;8.734;2023-02-19T08:04:06;100985.91;;;8.73;81.25
78014;BME280;67222;50.182;8.734;2023-02-19T08:06:31;100996.06;;;8.69;80.83
78014;BME280;67222;50.182;8.734;2023-02-19T08:08:56;100995.66;;;8.80;80.43
78014;BME280;67222;50.182;8.734;2023-02-19T08:11:22;100992.09;;;8.88;79.73
78014;BME280;67222;50.182;8.734;2023-02-19T08:14:05;101005.13;;;8.83;79.84
78014;BME280;67222;50.182;8.734;2023-02-19T08:16:31;101002.19;;;8.78;80.36
78014;BME280;67222;50.182;8.734;2023-02-19T08:18:56;101008.59;;;8.84;80.40
78014;BME280;67222;50.182;8.734;2023-02-19T08:21:21;101008.38;;;8.93;79.40
78014;BME280;67222;50.182;8.734;2023-02-19T08:23:47;101017.34;;;8.92;79.36
78014;BME280;67222;50.182;8.734;2023-02-19T08:26:12;101029.34;;;8.88;80.24
78014;BME280;67222;50.182;8.734;2023-02-19T08:28:38;101024.91;;;8.80;81.20
78014;BME280;67222;50.182;8.734;2023-02-19T08:31:05;101044.94;;;8.68;82.48
78014;BME280;67222;50.182;8.734;2023-02-19T08:33:31;101059.88;;;8.69;82.24
78014;BME280;67222;50.182;8.734;2023-02-19T08:36:00;101064.63;;;8.51;83.41
78014;BME280;67222;50.182;8.734;2023-02-19T08:38:28;101065.38;;;8.68;82.88
78014;BME280;67222;50.182;8.734;2023-02-19T08:40:54;101062.63;;;8.53;84.26
78014;BME280;67222;50.182;8.734;2023-02-19T08:43:19;101070.22;;;8.64;84.58
78014;BME280;67222;50.182;8.734;2023-02-19T08:45:45;101069.84;;;8.44;85.80
78014;BME280;67222;50.182;8.734;2023-02-19T08:48:13;101076.50;;;8.40;86.30
78014;BME280;67222;50.182;8.734;2023-02-19T08:50:39;101070.38;;;8.40;84.99
78014;BME280;67222;50.182;8.734;2023-02-19T08:53:05;101066.06;;;8.39;85.27
78014;BME280;67222;50.182;8.734;2023-02-19T08:55:31;101064.16;;;8.47;84.39
78014;BME280;67222;50.182;8.734;2023-02-19T08:57:57;101066.81;;;8.47;84.45
78014;BME280;67222;50.182;8.734;2023-02-19T09:03:03;101070.13;;;8.49;83.13
78014;BME280;67222;50.182;8.734;2023-02-19T09:05:28;101079.72;;;8.59;82.46
78014;BME280;67222;50.182;8.734;2023-02-19T09:07:54;101085.47;;;8.70;82.30
78014;BME280;67222;50.182;8.734;2023-02-19T09:10:19;101084.91;;;8.83;81.07
78014;BME280;67222;50.182;8.734;2023-02-19T09:12:45;101097.00;;;8.86;80.94
78014;BME280;67222;50.182;8.734;2023-02-19T09:15:10;101097.09;;;9.00;80.67
78014;BME280;67222;50.182;8.734;2023-02-19T09:17:35;101098.66;;;9.09;80.57
78014;BME280;67222;50.182;8.734;2023-02-19T09:20:01;101109.31;;;9.09;80.57
78014;BME280;67222;50.182;8.734;2023-02-19T09:22:26;101112.66;;;9.12;79.85
78014;BME280;67222;50.182;8.734;2023-02-19T09:24:51;101118.81;;;9.12;81.13
78014;BME280;67222;50.182;8.734;2023-02-19T09:27:18;101114.81;;;9.08;80.90
78014;BME280;67222;50.182;8.734;2023-02-19T09:29:44;101103.34;;;9.07;80.73
78014;BME280;67222;50.182;8.734;2023-02-19T09:32:10;101105.31;;;9.14;79.38
78014;BME280;67222;50.182;8.734;2023-02-19T09:34:35;101112.28;;;9.15;80.13
78014;BME280;67222;50.182;8.734;2023-02-19T09:37:03;101114.81;;;9.08;80.55
78014;BME280;67222;50.182;8.734;2023-02-19T09:39:28;101100.50;;;9.09;80.07
78014;BME280;67222;50.182;8.734;2023-02-19T09:42:03;101120.31;;;9.06;80.58
78014;BME280;67222;50.182;8.734;2023-02-19T09:44:41;101128.00;;;9.01;81.20
78014;BME280;67222;50.182;8.734;2023-02-19T09:47:15;101111.75;;;9.19;81.48
78014;BME280;67222;50.182;8.734;2023-02-19T09:49:43;101113.69;;;9.25;81.55
78014;BME280;67222;50.182;8.734;2023-02-19T09:52:43;101114.88;;;9.23;81.47
78014;BME280;67222;50.182;8.734;2023-02-19T09:55:21;101119.91;;;9.40;80.98
78014;BME280;67222;50.182;8.734;2023-02-19T09:57:51;101126.31;;;9.46;80.92
78014;BME280;67222;50.182;8.734;2023-02-19T10:00:24;101129.94;;;9.53;81.47
78014;BME280;67222;50.182;8.734;2023-02-19T10:02:59;101140.00;;;9.43;80.83
78014;BME280;67222;50.182;8.734;2023-02-19T10:05:27;101143.38;;;9.37;80.55
78014;BME280;67222;50.182;8.734;2023-02-19T10:07:54;101154.50;;;9.18;80.55
78014;BME280;67222;50.182;8.734;2023-02-19T10:10:31;101155.53;;;9.08;81.36
78014;BME280;67222;50.182;8.734;2023-02-19T10:13:16;101162.25;;;9.27;81.08
78014;BME280;67222;50.182;8.734;2023-02-19T10:15:51;101174.66;;;9.12;80.39
78014;BME280;67222;50.182;8.734;2023-02-19T10:18:22;101178.81;;;9.15;81.38
78014;BME280;67222;50.182;8.734;2023-02-19T10:20:50;101178.28;;;9.19;81.13
78014;BME280;67222;50.182;8.734;2023-02-19T10:23:16;101174.31;;;9.15;80.51
78014;BME280;67222;50.182;8.734;2023-02-19T10:25:46;101178.34;;;9.11;81.66
78014;BME280;67222;50.182;8.734;2023-02-19T10:28:15;101180.41;;;9.24;80.65
78014;BME280;67222;50.182;8.734;2023-02-19T10:36:05;101183.25;;;8.91;81.91
78014;BME280;67222;50.182;8.734;2023-02-19T10:38:34;101184.69;;;9.02;80.69
78014;BME280;67222;50.182;8.734;2023-02-19T10:41:04;101197.94;;;9.10;81.28
78014;BME280;67222;50.182;8.734;2023-02-19T10:43:33;101199.19;;;8.99;81.44
78014;BME280;67222;50.182;8.734;2023-02-19T10:46:04;101207.28;;;9.06;81.19
78014;BME280;67222;50.182;8.734;2023-02-19T10:48:34;101201.56;;;9.17;80.91
78014;BME280;67222;50.182;8.734;2023-02-19T10:51:05;101200.44;;;9.12;81.35
78014;BME280;67222;50.182;8.734;2023-02-19T10:53:39;101207.66;;;9.26;80.19
78014;BME280;67222;50.182;8.734;2023-02-19T10:56:15;101194.41;;;9.18;80.46
78014;BME280;67222;50.182;8.734;2023-02-19T10:58:47;101204.59;;;9.14;80.28
78014;BME280;67222;50.182;8.734;2023-02-19T11:03:44;101201.53;;;8.94;83.44
78014;BME280;67222;50.182;8.734;2023-02-19T11:06:10;101197.03;;;8.95;82.16
78014;BME280;67222;50.182;8.734;2023-02-19T11:11:24;101209.28;;;9.04;82.68
78014;BME280;67222;50.182;8.734;2023-02-19T11:13:50;101210.50;;;9.24;81.64
78014;BME280;67222;50.182;8.734;2023-02-19T11:16:16;101207.31;;;9.29;82.10
78014;BME280;67222;50.182;8.734;2023-02-19T11:18:41;101207.25;;;9.37;81.74
78014;BME280;67222;50.182;8.734;2023-02-19T11:21:24;101210.88;;;9.44;81.09
78014;BME280;67222;50.182;8.734;2023-02-19T11:23:53;101221.88;;;9.64;80.70
78014;BME280;67222;50.182;8.734;2023-02-19T11:26:24;101222.47;;;9.74;80.28
78014;BME280;67222;50.182;8.734;2023-02-19T11:28:56;101231.81;;;9.93;79.59
78014;BME280;67222;50.182;8.734;2023-02-19T11:31:30;101222.03;;;10.08;77.79
78014;BME280;67222;50.182;8.734;2023-02-19T11:33:57;101222.91;;;10.38;79.46
78014;BME280;67222;50.182;8.734;2023-02-19T11:36:26;101218.03;;;10.56;76.58
78014;BME280;67222;50.182;8.734;2023-02-19T11:38:53;101215.19;;;10.73;74.80
78014;BME280;67222;50.182;8.734;2023-02-19T11:45:02;101219.16;;;10.62;75.54
78014;BME280;67222;50.182;8.734;2023-02-19T11:49:47;101217.41;;;10.69;74.64
78014;BME280;67222;50.182;8.734;2023-02-19T11:57:38;101217.72;;;10.96;69.89
78014;BME280;67222;50.182;8.734;2023-02-19T12:03:23;101205.72;;;11.21;72.84
78014;BME280;67222;50.182;8.734;2023-02-19T12:06:14;101207.38;;;11.22;72.90
78014;BME280;67222;50.182;8.734;2023-02-19T12:11:14;101214.19;;;11.10;72.06
78014;BME280;67222;50.182;8.734;2023-02-19T12:16:40;101214.03;;;10.97;71.72
78014;BME280;67222;50.182;8.734;2023-02-19T12:27:58;101227.34;;;11.47;70.29
78014;BME280;67222;50.182;8.734;2023-02-19T12:30:51;101232.06;;;11.09;70.40
78014;BME280;67222;50.182;8.734;2023-02-19T12:36:20;101237.72;;;10.85;72.18
78014;BME280;67222;50.182;8.734;2023-02-19T12:44:53;101233.03;;;10.72;73.96
78014;BME280;67222;50.182;8.734;2023-02-19T12:47:23;101217.78;;;10.66;73.23
78014;BME280;67222;50.182;8.734;2023-02-19T12:50:18;101222.72;;;10.54;74.26
78014;BME280;67222;50.182;8.734;2023-02-19T12:52:50;101222.72;;;10.40;75.53
78014;BME280;67222;50.182;8.734;2023-02-19T12:57:43;101219.13;;;10.32;75.35
78014;BME280;67222;50.182;8.734;2023-02-19T13:00:32;101212.44;;;10.66;75.21
78014;BME280;67222;50.182;8.734;2023-02-19T13:03:08;101217.03;;;10.43;75.64
78014;BME280;67222;50.182;8.734;2023-02-19T13:05:48;101223.53;;;10.40;74.50
78014;BME280;67222;50.182;8.734;2023-02-19T13:10:48;101215.56;;;10.84;73.91
78014;BME280;67222;50.182;8.734;2023-02-19T13:13:22;101215.47;;;11.14;72.42
78014;BME280;67222;50.182;8.734;2023-02-19T13:15:53;101219.22;;;10.98;72.13
78014;BME280;67222;50.182;8.734;2023-02-19T13:18:33;101229.88;;;10.98;72.59
78014;BME280;67222;50.182;8.734;2023-02-19T13:32:49;101222.72;;;10.99;70.79
78014;BME280;67222;50.182;8.734;2023-02-19T13:35:55;101234.66;;;11.39;71.97
78014;BME280;67222;50.182;8.734;2023-02-19T13:38:25;101239.13;;;11.74;69.18
78014;BME280;67222;50.182;8.734;2023-02-19T13:40:53;101232.06;;;11.67;68.77
78014;BME280;67222;50.182;8.734;2023-02-19T13:45:54;101237.28;;;11.75;66.96
78014;BME280;67222;50.182;8.734;2023-02-19T13:48:36;101244.16;;;11.63;66.57
78014;BME280;67222;50.182;8.734;2023-02-19T14:04:23;101257.13;;;11.66;66.04
78014;BME280;67222;50.182;8.734;2023-02-19T14:12:22;101255.25;;;12.02;66.09
78014;BME280;67222;50.182;8.734;2023-02-19T14:14:54;101261.88;;;12.34;63.57
78014;BME280;67222;50.182;8.734;2023-02-19T14:17:27;101246.28;;;12.72;64.21
78014;BME280;67222;50.182;8.734;2023-02-19T14:19:59;101252.47;;;12.80;63.40
78014;BME280;67222;50.182;8.734;2023-02-19T14:27:45;101264.41;;;12.15;63.76
78014;BME280;67222;50.182;8.734;2023-02-19T14:30:12;101272.69;;;11.98;62.77
78014;BME280;67222;50.182;8.734;2023-02-19T14:32:39;101274.41;;;11.85;64.09
78014;BME280;67222;50.182;8.734;2023-02-19T14:35:05;101265.25;;;11.36;64.90
78014;BME280;67222;50.182;8.734;2023-02-19T14:37:31;101275.16;;;11.42;65.72
78014;BME280;67222;50.182;8.734;2023-02-19T14:39:58;101267.38;;;11.26;64.86
78014;BME280;67222;50.182;8.734;2023-02-19T14:42:25;101256.59;;;11.34;66.07
78014;BME280;67222;50.182;8.734;2023-02-19T14:44:58;101248.59;;;11.34;66.17
78014;BME280;67222;50.182;8.734;2023-02-19T14:47:28;101262.94;;;11.33;65.94
78014;BME280;67222;50.182;8.734;2023-02-19T14:52:33;101258.47;;;11.19;64.60
78014;BME280;67222;50.182;8.734;2023-02-19T14:55:06;101260.78;;;11.07;64.56
78014;BME280;67222;50.182;8.734;2023-02-19T14:57:37;101257.66;;;11.04;64.42
78014;BME280;67222;50.182;8.734;2023-02-19T15:00:22;101255.50;;;11.29;66.19
78014;BME280;67222;50.182;8.734;2023-02-19T15:02:49;101253.16;;;11.40;64.96
78014;BME280;67222;50.182;8.734;2023-02-19T15:05:26;101266.97;;;11.44;64.22
78014;BME280;67222;50.182;8.734;2023-02-19T15:07:54;101267.94;;;11.21;64.70
78014;BME280;67222;50.182;8.734;2023-02-19T15:10:20;101272.47;;;11.21;65.73
78014;BME280;67222;50.182;8.734;2023-02-19T15:13:22;101276.72;;;11.01;66.11
78014;BME280;67222;50.182;8.734;2023-02-19T15:15:43;101282.59;;;11.11;66.88
78014;BME280;67222;50.182;8.734;2023-02-19T15:18:16;101281.69;;;11.18;66.33
78014;BME280;67222;50.182;8.734;2023-02-19T15:20:42;101296.75;;;11.11;65.52
78014;BME280;67222;50.182;8.734;2023-02-19T15:23:07;101292.34;;;11.18;66.75
78014;BME280;67222;50.182;8.734;2023-02-19T15:25:35;101304.31;;;11.08;66.10
78014;BME280;67222;50.182;8.734;2023-02-19T15:28:37;101311.50;;;10.92;67.44
78014;BME280;67222;50.182;8.734;2023-02-19T15:31:04;101317.75;;;10.85;66.63
78014;BME280;67222;50.182;8.734;2023-02-19T15:33:31;101301.94;;;10.83;67.40
78014;BME280;67222;50.182;8.734;2023-02-19T15:35:59;101315.16;;;10.77;67.18
78014;BME280;67222;50.182;8.734;2023-02-19T15:38:26;101306.16;;;10.78;68.02
78014;BME280;67222;50.182;8.734;2023-02-19T15:40:52;101321.63;;;10.68;67.44
78014;BME280;67222;50.182;8.734;2023-02-19T15:43:42;101328.75;;;10.52;65.47
78014;BME280;67222;50.182;8.734;2023-02-19T15:46:17;101321.38;;;10.40;65.70
78014;BME280;67222;50.182;8.734;2023-02-19T15:51:17;101314.09;;;10.34;67.42
78014;BME280;67222;50.182;8.734;2023-02-19T15:53:48;101308.75;;;10.34;66.76
78014;BME280;67222;50.182;8.734;2023-02-19T15:56:34;101309.69;;;10.18;67.40
78014;BME280;67222;50.182;8.734;2023-02-19T15:59:03;101299.41;;;10.15;67.32
78014;BME280;67222;50.182;8.734;2023-02-19T16:01:32;101308.22;;;10.15;68.49
78014;BME280;67222;50.182;8.734;2023-02-19T16:03:59;101294.91;;;10.15;67.49
78014;BME280;67222;50.182;8.734;2023-02-19T16:06:25;101303.97;;;10.06;68.62
78014;BME280;67222;50.182;8.734;2023-02-19T16:13:51;101288.41;;;9.95;68.13
78014;BME280;67222;50.182;8.734;2023-02-19T16:16:23;101294.56;;;9.73;68.57
78014;BME280;67222;50.182;8.734;2023-02-19T16:18:50;101294.41;;;9.66;68.84
78014;BME280;67222;50.182;8.734;2023-02-19T16:21:19;101310.19;;;9.76;69.57
78014;BME280;67222;50.182;8.734;2023-02-19T16:23:48;101304.03;;;9.75;68.74
78014;BME280;67222;50.182;8.734;2023-02-19T16:26:15;101311.41;;;9.65;68.19
78014;BME280;67222;50.182;8.734;2023-02-19T16:28:41;101315.03;;;9.72;69.40
78014;BME280;67222;50.182;8.734;2023-02-19T16:31:09;101317.69;;;9.72;68.73
78014;BME280;67222;50.182;8.734;2023-02-19T16:33:43;101307.81;;;9.81;69.07
78014;BME280;67222;50.182;8.734;2023-02-19T16:36:37;101316.41;;;9.68;67.55
78014;BME280;67222;50.182;8.734;2023-02-19T16:46:56;101329.09;;;9.58;69.16
78014;BME280;67222;50.182;8.734;2023-02-19T16:49:22;101326.78;;;9.55;68.37
78014;BME280;67222;50.182;8.734;2023-02-19T16:51:48;101327.66;;;9.47;69.34
78014;BME280;67222;50.182;8.734;2023-02-19T16:54:14;101335.16;;;9.44;68.79
78014;BME280;67222;50.182;8.734;2023-02-19T16:56:39;101342.00;;;9.38;69.28
78014;BME280;67222;50.182;8.734;2023-02-19T16:59:04;101338.81;;;9.43;69.63
78014;BME280;67222;50.182;8.734;2023-02-19T17:01:32;101344.31;;;9.49;69.63
78014;BME280;67222;50.182;8.734;2023-02-19T17:03:59;101351.94;;;9.52;69.28
78014;BME280;67222;50.182;8.734;2023-02-19T17:06:27;101351.78;;;9.46;69.78
78014;BME280;67222;50.182;8.734;2023-02-19T17:08:52;101363.41;;;9.53;68.94
78014;BME280;67222;50.182;8.734;2023-02-19T17:11:18;101359.28;;;9.50;69.79
78014;BME280;67222;50.182;8.734;2023-02-19T17:13:44;101373.22;;;9.52;69.07
78014;BME280;67222;50.182;8.734;2023-02-19T17:16:23;101374.56;;;9.48;69.90
78014;BME280;67222;50.182;8.734;2023-02-19T17:18:49;101388.56;;;9.50;70.11
78014;BME280;67222;50.182;8.734;2023-02-19T17:21:18;101391.88;;;9.52;69.72
78014;BME280;67222;50.182;8.734;2023-02-19T17:23:44;101393.47;;;9.30;69.63
78014;BME280;67222;50.182;8.734;2023-02-19T17:26:17;101399.25;;;9.34;70.04
78014;BME280;67222;50.182;8.734;2023-02-19T17:28:43;101406.56;;;9.40;70.84
78014;BME280;67222;50.182;8.734;2023-02-19T17:31:09;101403.22;;;9.38;70.51
78014;BME280;67222;50.182;8.734;2023-02-19T17:33:35;101417.41;;;9.30;69.88
78014;BME280;67222;50.182;8.734;2023-02-19T17:36:01;101418.91;;;9.33;70.85
78014;BME280;67222;50.182;8.734;2023-02-19T17:38:27;101413.41;;;9.34;70.77
78014;BME280;67222;50.182;8.734;2023-02-19T17:40:53;101409.91;;;9.26;69.87
78014;BME280;67222;50.182;8.734;2023-02-19T17:43:18;101420.72;;;9.24;70.34
78014;BME280;67222;50.182;8.734;2023-02-19T17:45:43;101427.38;;;9.36;69.91
78014;BME280;67222;50.182;8.734;2023-02-19T17:48:11;101431.53;;;9.31;70.11
78014;BME280;67222;50.182;8.734;2023-02-19T17:50:37;101430.06;;;9.20;70.11
78014;BME280;67222;50.182;8.734;2023-02-19T17:53:03;101435.91;;;9.16;70.74
78014;BME280;67222;50.182;8.734;2023-02-19T17:55:28;101431.59;;;9.15;70.76
78014;BME280;67222;50.182;8.734;2023-02-19T17:57:53;101430.06;;;9.20;70.67
78014;BME280;67222;50.182;8.734;2023-02-19T18:00:23;101438.19;;;9.35;70.35
78014;BME280;67222;50.182;8.734;2023-02-19T18:02:49;101435.69;;;9.25;69.79
78014;BME280;67222;50.182;8.734;2023-02-19T18:05:15;101443.19;;;9.30;71.02
78014;BME280;67222;50.182;8.734;2023-02-19T18:07:41;101447.34;;;9.32;70.94
78014;BME280;67222;50.182;8.734;2023-02-19T18:10:08;101444.84;;;9.31;71.03
78014;BME280;67222;50.182;8.734;2023-02-19T18:12:33;101447.47;;;9.39;70.97
78014;BME280;67222;50.182;8.734;2023-02-19T18:14:59;101459.81;;;9.32;69.82
78014;BME280;67222;50.182;8.734;2023-02-19T18:17:25;101476.06;;;9.45;70.51
78014;BME280;67222;50.182;8.734;2023-02-19T18:19:51;101481.25;;;9.38;70.30
78014;BME280;67222;50.182;8.734;2023-02-19T18:22:16;101476.63;;;9.24;71.01
78014;BME280;67222;50.182;8.734;2023-02-19T18:24:49;101475.78;;;9.32;71.29
78014;BME280;67222;50.182;8.734;2023-02-19T18:27:15;101474.28;;;9.29;70.91
78014;BME280;67222;50.182;8.734;2023-02-19T18:29:41;101479.59;;;9.37;71.38
78014;BME280;67222;50.182;8.734;2023-02-19T18:32:06;101468.47;;;9.34;70.66
78014;BME280;67222;50.182;8.734;2023-02-19T18:34:32;101460.47;;;9.34;70.10
78014;BME280;67222;50.182;8.734;2023-02-19T18:36:57;101461.66;;;9.31;71.40
78014;BME280;67222;50.182;8.734;2023-02-19T18:39:22;101464.81;;;9.10;71.70
78014;BME280;67222;50.182;8.734;2023-02-19T18:41:49;101479.13;;;9.09;72.45
78014;BME280;67222;50.182;8.734;2023-02-19T18:44:20;101466.81;;;9.08;72.44
78014;BME280;67222;50.182;8.734;2023-02-19T18:46:46;101469.16;;;9.03;72.70
78014;BME280;67222;50.182;8.734;2023-02-19T18:49:11;101478.31;;;9.09;71.28
78014;BME280;67222;50.182;8.734;2023-02-19T18:54:10;101475.00;;;8.91;72.49
78014;BME280;67222;50.182;8.734;2023-02-19T18:56:43;101471.00;;;8.87;72.72
78014;BME280;67222;50.182;8.734;2023-02-19T18:59:10;101468.19;;;8.88;73.32
78014;BME280;67222;50.182;8.734;2023-02-19T19:01:35;101465.53;;;8.80;73.74
78014;BME280;67222;50.182;8.734;2023-02-19T19:04:00;101467.38;;;8.79;72.83
78014;BME280;67222;50.182;8.734;2023-02-19T19:06:26;101468.53;;;8.77;73.53
78014;BME280;67222;50.182;8.734;2023-02-19T19:08:51;101459.72;;;8.68;73.43
78014;BME280;67222;50.182;8.734;2023-02-19T19:11:19;101436.97;;;8.58;73.74
78014;BME280;67222;50.182;8.734;2023-02-19T19:13:47;101457.38;;;8.73;74.40
78014;BME280;67222;50.182;8.734;2023-02-19T19:16:12;101471.84;;;8.87;73.78
78014;BME280;67222;50.182;8.734;2023-02-19T19:18:38;101465.69;;;8.78;73.50
78014;BME280;67222;50.182;8.734;2023-02-19T19:21:04;101481.00;;;8.76;74.15
78014;BME280;67222;50.182;8.734;2023-02-19T19:23:30;101475.50;;;8.78;74.30
78014;BME280;67222;50.182;8.734;2023-02-19T19:25:55;101470.19;;;8.78;73.62
78014;BME280;67222;50.182;8.734;2023-02-19T19:28:21;101470.19;;;8.78;74.15
78014;BME280;67222;50.182;8.734;2023-02-19T19:30:46;101476.34;;;8.78;73.47
78014;BME280;67222;50.182;8.734;2023-02-19T19:33:12;101472.50;;;8.89;73.55
78014;BME280;67222;50.182;8.734;2023-02-19T19:35:37;101474.81;;;8.92;72.79
78014;BME280;67222;50.182;8.734;2023-02-19T19:38:02;101476.81;;;8.90;72.83
78014;BME280;67222;50.182;8.734;2023-02-19T19:40:28;101471.50;;;8.90;73.18
78014;BME280;67222;50.182;8.734;2023-02-19T19:42:53;101488.13;;;8.84;73.59
78014;BME280;67222;50.182;8.734;2023-02-19T19:45:19;101481.13;;;8.91;72.87
78014;BME280;67222;50.182;8.734;2023-02-19T19:47:44;101480.16;;;8.84;73.76
78014;BME280;67222;50.182;8.734;2023-02-19T19:50:10;101485.31;;;8.94;72.88
78014;BME280;67222;50.182;8.734;2023-02-19T19:52:37;101494.47;;;8.99;73.24
78014;BME280;67222;50.182;8.734;2023-02-19T19:55:03;101480.16;;;8.84;73.72
78014;BME280;67222;50.182;8.734;2023-02-19T19:57:29;101484.13;;;8.88;73.03
78014;BME280;67222;50.182;8.734;2023-02-19T19:59:54;101484.16;;;8.96;73.28
78014;BME280;67222;50.182;8.734;2023-02-19T20:02:19;101486.63;;;8.90;72.85
78014;BME280;67222;50.182;8.734;2023-02-19T20:04:45;101486.78;;;8.88;73.54
78014;BME280;67222;50.182;8.734;2023-02-19T20:07:10;101489.63;;;8.95;74.53
78014;BME280;67222;50.182;8.734;2023-02-19T20:09:35;101495.59;;;8.89;73.85
78014;BME280;67222;50.182;8.734;2023-02-19T20:12:01;101497.59;;;8.87;73.59
78014;BME280;67222;50.182;8.734;2023-02-19T20:14:27;101498.09;;;8.90;73.51
78014;BME280;67222;50.182;8.734;2023-02-19T20:16:54;101505.91;;;8.84;74.19
78014;BME280;67222;50.182;8.734;2023-02-19T20:19:19;101505.22;;;8.73;74.25
78014;BME280;67222;50.182;8.734;2023-02-19T20:21:50;101505.41;;;8.72;74.33
78014;BME280;67222;50.182;8.734;2023-02-19T20:24:17;101514.88;;;8.66;74.89
78014;BME280;67222;50.182;8.734;2023-02-19T20:26:43;101521.72;;;8.77;74.58
78014;BME280;67222;50.182;8.734;2023-02-19T20:29:09;101518.88;;;8.70;74.92
78014;BME280;67222;50.182;8.734;2023-02-19T20:31:37;101527.00;;;8.69;75.04
78014;BME280;67222;50.182;8.734;2023-02-19T20:34:04;101528.34;;;8.73;74.68
78014;BME280;67222;50.182;8.734;2023-02-19T20:36:29;101534.84;;;8.78;74.44
78014;BME280;67222;50.182;8.734;2023-02-19T20:38:56;101538.97;;;8.73;75.26
78014;BME280;67222;50.182;8.734;2023-02-19T20:41:21;101545.81;;;8.75;75.15
78014;BME280;67222;50.182;8.734;2023-02-19T20:43:47;101539.47;;;8.68;75.35
78014;BME280;67222;50.182;8.734;2023-02-19T20:46:12;101537.16;;;8.73;75.45
78014;BME280;67222;50.182;8.734;2023-02-19T20:48:37;101530.50;;;8.69;75.51
78014;BME280;67222;50.182;8.734;2023-02-19T20:51:03;101542.47;;;8.65;75.08
78014;BME280;67222;50.182;8.734;2023-02-19T20:53:29;101535.50;;;8.80;74.59
78014;BME280;67222;50.182;8.734;2023-02-19T20:55:56;101530.84;;;8.66;74.70
78014;BME280;67222;50.182;8.734;2023-02-19T20:58:22;101523.72;;;8.75;75.26
78014;BME280;67222;50.182;8.734;2023-02-19T21:00:47;101519.38;;;8.58;75.66
78014;BME280;67222;50.182;8.734;2023-02-19T21:03:13;101519.00;;;8.53;76.19
78014;BME280;67222;50.182;8.734;2023-02-19T21:05:38;101519.66;;;8.55;76.12
78014;BME280;67222;50.182;8.734;2023-02-19T21:08:04;101529.84;;;8.67;75.09
78014;BME280;67222;50.182;8.734;2023-02-19T21:13:12;101530.34;;;8.71;74.29
78014;BME280;67222;50.182;8.734;2023-02-19T21:15:37;101541.63;;;8.65;75.23
78014;BME280;67222;50.182;8.734;2023-02-19T21:18:02;101539.66;;;8.83;74.04
78014;BME280;67222;50.182;8.734;2023-02-19T21:20:29;101545.81;;;8.75;74.43
78014;BME280;67222;50.182;8.734;2023-02-19T21:22:55;101560.63;;;8.78;74.55
78014;BME280;67222;50.182;8.734;2023-02-19T21:25:20;101558.59;;;8.64;74.66
78014;BME280;67222;50.182;8.734;2023-02-19T21:27:45;101558.09;;;8.60;74.36
78014;BME280;67222;50.182;8.734;2023-02-19T21:30:11;101555.44;;;8.68;74.99
78014;BME280;67222;50.182;8.734;2023-02-19T21:32:36;101562.44;;;8.77;74.14
78014;BME280;67222;50.182;8.734;2023-02-19T21:35:01;101567.41;;;8.72;74.25
78014;BME280;67222;50.182;8.734;2023-02-19T21:37:27;101567.53;;;8.55;74.56
78014;BME280;67222;50.182;8.734;2023-02-19T21:39:52;101572.34;;;8.51;74.96
78014;BME280;67222;50.182;8.734;2023-02-19T21:42:19;101567.84;;;8.43;74.68